createdAt,value
2017-11-26T00:02:08.135Z,80.04
2017-11-26T00:04:35.694Z,80.20
2017-11-26T00:07:03.241Z,80.64
2017-11-26T00:09:30.773Z,80.13
2017-11-26T00:11:58.333Z,79.63
2017-11-26T00:14:25.937Z,80.03
2017-11-26T00:16:53.527Z,80.03
2017-11-26T00:19:21.123Z,80.04
2017-11-26T00:21:48.682Z,80.18
2017-11-26T00:24:16.239Z,80.40
2017-11-26T00:26:43.819Z,80.56
2017-11-26T00:29:11.638Z,81.06
2017-11-26T00:31:39.255Z,80.77
2017-11-26T00:34:06.850Z,80.70
2017-11-26T00:36:34.439Z,80.95
2017-11-26T00:39:02.217Z,81.04
2017-11-26T00:41:29.753Z,81.07
2017-11-26T00:43:57.315Z,81.44
2017-11-26T00:46:24.941Z,80.67
2017-11-26T00:48:52.499Z,80.68
2017-11-26T00:51:20.043Z,80.95
2017-11-26T00:53:47.618Z,81.42
2017-11-26T00:56:15.168Z,81.00
2017-11-26T00:58:42.732Z,80.78
2017-11-26T01:01:10.344Z,81.05
2017-11-26T01:03:37.897Z,81.25
2017-11-26T01:06:05.483Z,81.16
2017-11-26T01:08:33.056Z,81.33
2017-11-26T01:11:00.611Z,81.78
2017-11-26T01:13:28.168Z,81.92
2017-11-26T01:15:55.775Z,82.38
2017-11-26T01:18:23.322Z,82.65
2017-11-26T01:20:50.910Z,81.58
2017-11-26T01:23:18.481Z,81.86
2017-11-26T01:25:46.073Z,82.20
2017-11-26T01:28:13.676Z,82.14
2017-11-26T01:30:41.227Z,81.44
2017-11-26T01:33:08.923Z,80.88
2017-11-26T01:35:37.087Z,80.52
2017-11-26T01:38:04.669Z,79.92
2017-11-26T01:40:32.267Z,79.35
2017-11-26T01:42:59.825Z,79.30
2017-11-26T01:45:27.388Z,79.75
2017-11-26T01:47:54.963Z,78.98
2017-11-26T01:50:22.521Z,79.50
2017-11-26T01:52:50.096Z,78.71
2017-11-26T01:55:17.709Z,78.63
2017-11-26T01:57:45.381Z,78.65
2017-11-26T02:00:12.976Z,78.54
2017-11-26T02:02:40.582Z,78.56
2017-11-26T02:05:08.195Z,77.49
2017-11-26T02:07:35.755Z,78.11
2017-11-26T02:10:03.375Z,78.28
2017-11-26T02:12:31.013Z,78.11
2017-11-26T02:14:58.591Z,78.66
2017-11-26T02:17:26.150Z,78.59
2017-11-26T02:19:53.766Z,78.97
2017-11-26T02:22:21.391Z,79.17
2017-11-26T02:24:48.959Z,79.29
2017-11-26T02:27:16.540Z,79.51
2017-11-26T02:29:44.133Z,79.24
2017-11-26T02:32:23.366Z,80.03
2017-11-26T02:35:02.607Z,79.75
2017-11-26T02:37:30.170Z,80.29
2017-11-26T02:39:57.730Z,79.73
2017-11-26T02:42:25.332Z,79.82
2017-11-26T02:44:52.914Z,79.38
2017-11-26T02:47:20.870Z,79.59
2017-11-26T02:49:48.907Z,79.49
2017-11-26T02:52:16.509Z,79.65
2017-11-26T02:54:44.076Z,80.31
2017-11-26T02:57:11.658Z,80.19
2017-11-26T02:59:39.230Z,80.11
2017-11-26T03:02:06.824Z,80.01
2017-11-26T03:04:34.756Z,80.38
2017-11-26T03:07:02.403Z,80.64
2017-11-26T03:09:29.958Z,80.44
2017-11-26T03:11:57.645Z,80.34
2017-11-26T03:14:25.298Z,80.29
2017-11-26T03:16:53.256Z,80.40
2017-11-26T03:19:20.841Z,80.70
2017-11-26T03:21:48.409Z,80.78
2017-11-26T03:24:16.068Z,80.82
2017-11-26T03:26:43.683Z,81.18
2017-11-26T03:29:11.468Z,81.21
2017-11-26T03:31:39.049Z,81.17
2017-11-26T03:34:06.634Z,81.35
2017-11-26T03:36:34.212Z,81.39
2017-11-26T03:39:01.772Z,81.90
2017-11-26T03:41:29.359Z,82.08
2017-11-26T03:43:58.286Z,82.05
2017-11-26T03:46:25.982Z,82.10
2017-11-26T03:48:53.601Z,81.70
2017-11-26T03:51:21.161Z,81.43
2017-11-26T03:53:48.747Z,81.90
2017-11-26T03:56:16.313Z,81.34
2017-11-26T03:58:43.896Z,80.36
2017-11-26T04:01:11.983Z,80.05
2017-11-26T04:03:39.590Z,81.56
2017-11-26T04:06:07.139Z,82.75
2017-11-26T04:08:34.683Z,84.41
2017-11-26T04:11:02.270Z,86.08
2017-11-26T04:13:30.188Z,87.07
2017-11-26T04:15:57.961Z,88.38
2017-11-26T04:18:25.555Z,89.55
2017-11-26T04:20:53.106Z,90.23
2017-11-26T04:23:20.675Z,90.57
2017-11-26T04:25:48.276Z,91.61
2017-11-26T04:28:15.912Z,91.73
2017-11-26T04:30:43.491Z,92.40
2017-11-26T04:33:11.207Z,92.29
2017-11-26T04:35:38.760Z,92.36
2017-11-26T04:38:06.366Z,92.09
2017-11-26T04:40:33.935Z,91.40
2017-11-26T04:43:01.535Z,91.43
2017-11-26T04:45:29.104Z,91.44
2017-11-26T04:47:56.652Z,91.99
2017-11-26T04:50:24.293Z,91.55
2017-11-26T04:52:51.842Z,91.58
2017-11-26T04:55:19.413Z,91.38
2017-11-26T04:57:46.980Z,92.07
2017-11-26T05:00:14.556Z,92.09
2017-11-26T05:02:42.206Z,91.89
2017-11-26T05:05:10.119Z,89.63
2017-11-26T05:07:37.698Z,90.01
2017-11-26T05:10:05.275Z,89.85
2017-11-26T05:12:32.871Z,90.55
2017-11-26T05:15:00.417Z,90.95
2017-11-26T05:17:27.990Z,90.92
2017-11-26T05:19:55.556Z,90.76
2017-11-26T05:22:23.100Z,90.21
2017-11-26T05:24:50.681Z,90.63
2017-11-26T05:27:18.240Z,91.28
2017-11-26T05:29:45.811Z,91.69
2017-11-26T05:32:13.487Z,91.85
2017-11-26T05:34:41.111Z,92.42
2017-11-26T05:37:09.037Z,91.98
2017-11-26T05:39:36.595Z,91.59
2017-11-26T05:42:04.180Z,90.66
2017-11-26T05:44:31.710Z,90.95
2017-11-26T05:46:59.250Z,91.43
2017-11-26T05:49:26.918Z,92.05
2017-11-26T05:51:54.494Z,92.04
2017-11-26T05:54:22.880Z,86.90
2017-11-26T05:56:50.472Z,84.97
2017-11-26T05:59:18.020Z,84.34
2017-11-26T06:01:45.566Z,83.90
2017-11-26T06:04:13.158Z,85.16
2017-11-26T06:06:40.710Z,84.29
2017-11-26T06:09:08.290Z,84.05
2017-11-26T06:11:35.913Z,84.05
2017-11-26T06:14:03.487Z,82.89
2017-11-26T06:16:31.063Z,84.13
2017-11-26T06:18:58.628Z,83.42
2017-11-26T06:21:26.325Z,85.22
2017-11-26T06:23:53.876Z,85.47
2017-11-26T06:26:22.484Z,85.61
2017-11-26T06:28:50.037Z,85.72
2017-11-26T06:31:17.589Z,86.95
2017-11-26T06:33:45.213Z,85.34
2017-11-26T06:36:12.775Z,84.39
2017-11-26T06:38:40.384Z,84.70
2017-11-26T06:41:08.416Z,84.49
2017-11-26T06:43:38.138Z,84.43
2017-11-26T06:46:05.726Z,82.33
2017-11-26T06:48:33.308Z,81.81
2017-11-26T06:51:00.866Z,82.11
2017-11-26T06:53:28.435Z,83.54
2017-11-26T06:55:56.032Z,83.28
2017-11-26T06:58:23.977Z,83.70
2017-11-26T07:00:51.567Z,84.33
2017-11-26T07:03:19.143Z,83.85
2017-11-26T07:05:46.703Z,82.22
2017-11-26T07:08:14.272Z,81.57
2017-11-26T07:10:41.844Z,81.10
2017-11-26T07:13:11.418Z,81.95
2017-11-26T07:15:38.998Z,80.30
2017-11-26T07:18:06.703Z,80.33
2017-11-26T07:20:34.296Z,80.59
2017-11-26T07:23:01.907Z,80.24
2017-11-26T07:25:29.504Z,80.36
2017-11-26T07:27:57.070Z,79.41
2017-11-26T07:30:24.779Z,79.74
2017-11-26T07:32:52.316Z,79.23
2017-11-26T07:35:19.878Z,79.49
2017-11-26T07:37:47.450Z,78.68
2017-11-26T07:40:15.071Z,78.13
2017-11-26T07:42:42.680Z,77.84
2017-11-26T07:45:10.429Z,76.97
2017-11-26T07:47:39.003Z,77.42
2017-11-26T07:50:06.711Z,76.60
2017-11-26T07:52:34.264Z,77.02
2017-11-26T07:55:01.839Z,77.39
2017-11-26T07:57:29.418Z,77.28
2017-11-26T07:59:56.998Z,77.04
2017-11-26T08:02:24.573Z,76.24
2017-11-26T08:04:52.156Z,74.92
2017-11-26T08:07:19.739Z,75.50
2017-11-26T08:09:47.370Z,75.72
2017-11-26T08:12:14.925Z,74.94
2017-11-26T08:14:42.478Z,73.79
2017-11-26T08:17:10.369Z,74.55
2017-11-26T08:19:37.985Z,73.71
2017-11-26T08:24:39.421Z,68.86
2017-11-26T08:27:07.008Z,69.95
2017-11-26T08:29:35.628Z,70.38
2017-11-26T08:32:03.177Z,69.95
2017-11-26T08:34:30.741Z,68.11
2017-11-26T08:36:58.302Z,68.36
2017-11-26T08:39:25.852Z,69.56
2017-11-26T08:41:53.467Z,69.53
2017-11-26T08:44:21.247Z,70.19
2017-11-26T08:46:48.845Z,69.21
2017-11-26T08:49:16.481Z,69.65
2017-11-26T08:51:44.141Z,68.88
2017-11-26T08:54:11.756Z,66.76
2017-11-26T08:56:39.318Z,67.41
2017-11-26T08:59:06.927Z,67.12
2017-11-26T09:01:34.563Z,67.97
2017-11-26T09:04:02.128Z,67.06
2017-11-26T09:09:29.069Z,66.81
2017-11-26T09:11:56.863Z,65.97
2017-11-26T09:14:24.444Z,66.02
2017-11-26T09:16:52.012Z,67.87
2017-11-26T09:19:19.639Z,67.83
2017-11-26T09:21:47.216Z,66.19
2017-11-26T09:24:16.468Z,66.24
2017-11-26T09:26:44.141Z,66.47
2017-11-26T09:29:12.139Z,65.82
2017-11-26T09:31:39.694Z,66.32
2017-11-26T09:34:07.259Z,65.00
2017-11-26T09:36:34.887Z,65.99
2017-11-26T09:39:02.451Z,66.10
2017-11-26T09:41:30.087Z,66.29
2017-11-26T09:43:58.069Z,66.23
2017-11-26T09:46:26.000Z,66.05
2017-11-26T09:48:53.568Z,66.56
2017-11-26T09:51:21.431Z,67.37
2017-11-26T09:53:49.048Z,66.84
2017-11-26T09:56:17.916Z,68.82
2017-11-26T09:58:45.877Z,69.65
2017-11-26T10:01:13.562Z,70.88
2017-11-26T10:03:41.182Z,69.99
2017-11-26T10:06:08.811Z,70.41
2017-11-26T10:08:36.439Z,70.26
2017-11-26T10:11:04.099Z,71.20
2017-11-26T10:13:31.690Z,71.49
2017-11-26T10:15:59.244Z,70.72
2017-11-26T10:18:26.828Z,70.36
2017-11-26T10:20:54.399Z,69.97
2017-11-26T10:23:22.025Z,70.85
2017-11-26T10:25:49.613Z,69.76
2017-11-26T10:28:17.193Z,70.66
2017-11-26T10:30:44.776Z,70.04
2017-11-26T10:33:12.748Z,70.38
2017-11-26T10:35:40.327Z,70.32
2017-11-26T10:38:07.928Z,71.93
2017-11-26T10:40:35.748Z,69.62
2017-11-26T10:43:03.310Z,70.21
2017-11-26T10:45:30.893Z,70.50
2017-11-26T10:47:58.486Z,70.59
2017-11-26T10:50:26.033Z,71.24
2017-11-26T10:52:53.591Z,68.69
2017-11-26T10:55:23.119Z,69.68
2017-11-26T10:57:50.715Z,68.89
2017-11-26T11:00:18.319Z,69.98
2017-11-26T11:02:45.962Z,69.65
2017-11-26T11:05:14.373Z,70.65
2017-11-26T11:07:41.976Z,70.96
2017-11-26T11:10:09.569Z,70.50
2017-11-26T11:12:37.189Z,70.41
2017-11-26T11:15:04.786Z,70.00
2017-11-26T11:17:32.335Z,69.62
2017-11-26T11:19:59.919Z,69.25
2017-11-26T11:22:29.543Z,68.84
2017-11-26T11:24:57.110Z,68.55
2017-11-26T11:27:24.798Z,67.90
2017-11-26T11:29:52.656Z,68.27
2017-11-26T11:32:20.204Z,68.08
2017-11-26T11:34:47.782Z,68.99
2017-11-26T11:37:16.156Z,69.25
2017-11-26T11:39:43.733Z,68.67
2017-11-26T11:42:11.341Z,67.81
2017-11-26T11:44:38.945Z,68.97
2017-11-26T11:47:06.518Z,70.49
2017-11-26T11:49:35.209Z,70.73
2017-11-26T11:52:02.795Z,71.84
2017-11-26T11:54:30.555Z,72.40
2017-11-26T11:56:58.143Z,73.04
2017-11-26T11:59:27.339Z,72.61
2017-11-26T12:01:54.904Z,72.52
2017-11-26T12:04:23.367Z,72.71
2017-11-26T12:06:50.970Z,71.95
2017-11-26T12:09:18.523Z,72.39
2017-11-26T12:11:46.131Z,72.95
2017-11-26T12:14:13.806Z,72.86
2017-11-26T12:16:41.412Z,72.52
2017-11-26T12:19:09.448Z,72.61
2017-11-26T12:21:37.123Z,72.57
2017-11-26T12:24:04.738Z,72.96
2017-11-26T12:26:32.370Z,72.39
2017-11-26T12:28:59.957Z,72.25
2017-11-26T12:31:29.174Z,73.36
2017-11-26T12:33:56.800Z,72.39
2017-11-26T12:36:25.285Z,72.80
2017-11-26T12:38:52.944Z,73.59
2017-11-26T12:41:20.781Z,72.64
2017-11-26T12:43:48.337Z,73.00
2017-11-26T12:46:16.034Z,73.40
2017-11-26T12:48:43.584Z,73.68
2017-11-26T12:51:11.533Z,73.50
2017-11-26T12:53:39.137Z,73.29
2017-11-26T12:56:06.733Z,73.47
2017-11-26T12:58:34.318Z,72.13
2017-11-26T13:01:01.910Z,71.11
2017-11-26T13:03:29.463Z,70.26
2017-11-26T13:05:57.055Z,70.11
2017-11-26T13:08:24.628Z,69.63
2017-11-26T13:10:52.242Z,70.21
2017-11-26T13:13:19.866Z,69.15
2017-11-26T13:15:47.454Z,68.69
2017-11-26T13:18:15.227Z,69.63
2017-11-26T13:20:42.811Z,69.75
2017-11-26T13:23:12.009Z,70.40
2017-11-26T13:25:39.667Z,70.84
2017-11-26T13:28:07.268Z,71.07
2017-11-26T13:30:35.629Z,70.54
2017-11-26T13:33:03.233Z,70.77
2017-11-26T13:35:30.793Z,70.11
2017-11-26T13:37:58.420Z,70.81
2017-11-26T13:40:26.034Z,70.04
2017-11-26T13:42:53.598Z,70.91
2017-11-26T13:45:21.211Z,71.35
2017-11-26T13:47:48.784Z,70.43
2017-11-26T13:50:16.371Z,70.90
2017-11-26T13:52:44.002Z,71.03
2017-11-26T13:55:11.516Z,70.23
2017-11-26T13:57:39.048Z,71.23
2017-11-26T14:00:06.630Z,70.55
2017-11-26T14:02:34.158Z,70.47
2017-11-26T14:05:01.775Z,71.11
2017-11-26T14:07:46.944Z,71.58
2017-11-26T14:10:14.601Z,71.96
2017-11-26T14:12:42.189Z,71.48
2017-11-26T14:15:09.853Z,71.92
2017-11-26T14:17:37.510Z,71.78
2017-11-26T14:20:05.048Z,72.03
2017-11-26T14:22:32.553Z,71.47
2017-11-26T14:25:06.071Z,71.57
2017-11-26T14:27:33.623Z,71.79
2017-11-26T14:30:01.192Z,72.73
2017-11-26T14:32:28.771Z,71.78
2017-11-26T14:34:56.366Z,72.42
2017-11-26T14:37:23.982Z,72.46
2017-11-26T14:39:51.616Z,72.90
2017-11-26T14:42:19.238Z,72.45
2017-11-26T14:44:46.844Z,73.19
2017-11-26T14:47:14.433Z,72.40
2017-11-26T14:49:42.044Z,73.84
2017-11-26T14:52:09.605Z,73.27
2017-11-26T14:54:37.177Z,73.51
2017-11-26T14:57:04.788Z,73.13
2017-11-26T14:59:32.411Z,72.69
2017-11-26T15:01:59.978Z,71.98
2017-11-26T15:04:27.619Z,71.38
2017-11-26T15:06:55.211Z,72.88
2017-11-26T15:09:22.751Z,71.81
2017-11-26T15:11:51.047Z,71.51
2017-11-26T15:14:18.626Z,71.93
2017-11-26T15:16:46.185Z,72.24
2017-11-26T15:19:14.261Z,71.72
2017-11-26T15:21:41.887Z,70.92
2017-11-26T15:24:09.449Z,71.37
2017-11-26T15:26:37.432Z,70.79
2017-11-26T15:29:07.041Z,71.39
2017-11-26T15:31:35.966Z,71.20
2017-11-26T15:34:03.553Z,70.67
2017-11-26T15:36:31.148Z,70.36
2017-11-26T15:38:59.148Z,70.57
2017-11-26T15:41:26.995Z,70.79
2017-11-26T15:43:54.569Z,70.80
2017-11-26T15:46:22.153Z,70.16
2017-11-26T15:48:49.986Z,69.68
2017-11-26T15:51:17.585Z,69.36
2017-11-26T15:53:45.252Z,70.16
2017-11-26T15:56:12.943Z,71.07
2017-11-26T15:58:40.519Z,70.32
2017-11-26T16:01:08.710Z,70.13
2017-11-26T16:03:36.274Z,69.83
2017-11-26T16:06:03.841Z,70.27
2017-11-26T16:08:31.442Z,70.48
2017-11-26T16:10:58.997Z,71.00
2017-11-26T16:13:26.609Z,71.49
2017-11-26T16:15:54.387Z,71.75
2017-11-26T16:18:23.184Z,71.99
2017-11-26T16:20:50.931Z,72.79
2017-11-26T16:23:19.133Z,73.49
2017-11-26T16:25:47.031Z,74.38
2017-11-26T16:28:15.308Z,74.17
2017-11-26T16:30:42.967Z,74.23
2017-11-26T16:33:10.534Z,74.81
2017-11-26T16:35:39.114Z,75.42
2017-11-26T16:38:06.759Z,75.89
2017-11-26T16:40:34.308Z,76.04
2017-11-26T16:43:01.909Z,75.29
2017-11-26T16:45:29.525Z,75.41
2017-11-26T16:47:57.085Z,75.03
2017-11-26T16:50:24.668Z,75.48
2017-11-26T16:52:52.230Z,75.78
2017-11-26T16:55:19.791Z,76.02
2017-11-26T16:57:47.343Z,76.46
2017-11-26T17:00:14.861Z,76.17
2017-11-26T17:02:42.431Z,76.22
2017-11-26T17:05:10.166Z,76.90
2017-11-26T17:07:37.882Z,76.87
2017-11-26T17:10:05.447Z,77.18
2017-11-26T17:12:33.013Z,77.59
2017-11-26T17:15:00.574Z,77.27
2017-11-26T17:17:28.260Z,76.57
2017-11-26T17:19:55.844Z,76.67
2017-11-26T17:22:24.260Z,77.04
2017-11-26T17:24:51.830Z,77.05
2017-11-26T17:27:19.377Z,77.50
2017-11-26T17:29:46.940Z,77.39
2017-11-26T17:32:14.506Z,77.71
2017-11-26T17:34:42.057Z,77.63
2017-11-26T17:37:09.987Z,77.29
2017-11-26T17:39:37.526Z,76.77
2017-11-26T17:42:05.064Z,76.69
2017-11-26T17:44:32.730Z,77.40
2017-11-26T17:47:00.308Z,77.69
2017-11-26T17:49:28.095Z,77.66
2017-11-26T17:51:55.882Z,76.80
2017-11-26T17:59:47.269Z,76.62
2017-11-26T18:02:14.815Z,76.81
2017-11-26T18:04:42.343Z,76.53
2017-11-26T18:07:10.217Z,76.82
2017-11-26T18:09:37.784Z,76.20
2017-11-26T18:12:05.536Z,75.83
2017-11-26T18:14:33.251Z,75.65
2017-11-26T18:17:00.820Z,75.57
2017-11-26T18:19:28.429Z,75.70
2017-11-26T18:21:56.138Z,76.05
2017-11-26T18:24:23.689Z,75.99
2017-11-26T18:26:51.266Z,76.41
2017-11-26T18:29:18.879Z,76.87
2017-11-26T18:31:46.439Z,77.48
2017-11-26T18:34:14.027Z,77.56
2017-11-26T18:36:41.586Z,78.19
2017-11-26T18:39:09.492Z,78.02
2017-11-26T18:41:37.055Z,77.74
2017-11-26T18:44:04.657Z,77.50
2017-11-26T18:46:32.197Z,77.83
2017-11-26T18:48:59.733Z,77.65
2017-11-26T18:51:27.374Z,77.47
2017-11-26T18:53:54.909Z,77.88
2017-11-26T18:56:23.023Z,77.96
2017-11-26T18:58:50.581Z,78.64
2017-11-26T19:01:18.187Z,78.48
2017-11-26T19:03:45.861Z,78.59
2017-11-26T19:06:13.433Z,78.20
2017-11-26T19:08:41.015Z,78.45
2017-11-26T19:11:08.795Z,78.32
2017-11-26T19:13:36.374Z,78.78
2017-11-26T19:16:04.000Z,77.44
2017-11-26T19:18:31.549Z,77.02
2017-11-26T19:20:59.095Z,77.18
2017-11-26T19:23:26.657Z,77.60
2017-11-26T19:25:54.229Z,77.77
2017-11-26T19:28:21.778Z,77.74
2017-11-26T19:30:49.322Z,79.16
2017-11-26T19:33:16.930Z,78.70
2017-11-26T19:35:44.548Z,78.11
2017-11-26T19:38:12.123Z,78.79
2017-11-26T19:40:39.692Z,78.43
2017-11-26T19:43:07.310Z,78.36
2017-11-26T19:45:34.861Z,79.08
2017-11-26T19:48:02.401Z,79.12
2017-11-26T19:50:30.008Z,79.06
2017-11-26T19:52:57.551Z,79.20
2017-11-26T19:55:25.116Z,79.82
2017-11-26T19:57:52.798Z,79.94
2017-11-26T20:00:20.331Z,79.04
2017-11-26T20:02:47.872Z,78.74
2017-11-26T20:05:15.498Z,78.31
2017-11-26T20:07:43.086Z,78.70
2017-11-26T20:10:10.689Z,78.92
2017-11-26T20:12:38.296Z,79.25
2017-11-26T20:15:05.910Z,79.30
2017-11-26T20:17:33.492Z,79.33
2017-11-26T20:20:01.065Z,79.75
2017-11-26T20:22:28.645Z,80.05
2017-11-26T20:24:56.198Z,80.43
2017-11-26T20:27:23.785Z,80.56
2017-11-26T20:29:51.346Z,80.57
2017-11-26T20:32:18.915Z,80.82
2017-11-26T20:34:46.539Z,80.90
2017-11-26T20:37:14.129Z,80.87
2017-11-26T20:39:41.675Z,80.67
2017-11-26T20:42:09.280Z,80.63
2017-11-26T20:44:36.823Z,80.32
2017-11-26T20:47:04.390Z,79.60
2017-11-26T20:49:32.019Z,79.80
2017-11-26T20:51:59.567Z,79.17
2017-11-26T20:54:27.129Z,78.85
2017-11-26T20:56:54.707Z,79.11
2017-11-26T20:59:22.269Z,78.77
2017-11-26T21:01:49.799Z,78.67
2017-11-26T21:04:17.450Z,79.33
2017-11-26T21:06:44.945Z,78.77
2017-11-26T21:09:12.495Z,78.27
2017-11-26T21:11:40.348Z,78.80
2017-11-26T21:14:07.916Z,78.60
2017-11-26T21:16:35.495Z,77.95
2017-11-26T21:19:03.198Z,78.00
2017-11-26T21:21:30.743Z,77.78
2017-11-26T21:23:58.544Z,78.08
2017-11-26T21:26:26.450Z,77.57
2017-11-26T21:28:54.003Z,78.14
2017-11-26T21:31:21.586Z,77.87
2017-11-26T21:33:49.138Z,78.24
2017-11-26T21:36:16.685Z,77.91
2017-11-26T21:38:44.293Z,77.71
2017-11-26T21:41:12.096Z,77.77
2017-11-26T21:43:39.665Z,78.35
2017-11-26T21:46:07.223Z,78.45
2017-11-26T21:48:34.748Z,78.08
2017-11-26T21:51:02.811Z,78.20
2017-11-26T21:53:31.150Z,78.30
2017-11-26T21:55:58.743Z,78.81
2017-11-26T21:58:26.287Z,79.34
2017-11-26T22:00:53.866Z,79.18
2017-11-26T22:03:21.831Z,79.71
2017-11-26T22:05:49.418Z,79.91
2017-11-26T22:08:17.004Z,80.11
2017-11-26T22:10:44.558Z,80.36
2017-11-26T22:13:14.037Z,80.36
2017-11-26T22:15:41.612Z,80.51
2017-11-26T22:18:09.165Z,80.29
2017-11-26T22:20:36.711Z,79.95
2017-11-26T22:23:04.485Z,80.37
2017-11-26T22:25:32.014Z,80.48
2017-11-26T22:27:59.547Z,80.50
2017-11-26T22:30:27.100Z,80.37
2017-11-26T22:32:54.649Z,80.57
2017-11-26T22:35:22.920Z,80.54
2017-11-26T22:37:50.467Z,80.39
2017-11-26T22:40:18.015Z,80.21
2017-11-26T22:42:45.585Z,80.31
2017-11-26T22:45:13.163Z,79.25
2017-11-26T22:47:40.700Z,79.35
2017-11-26T22:50:08.237Z,79.72
2017-11-26T22:52:35.785Z,79.53
2017-11-26T22:55:03.345Z,79.48
2017-11-26T22:57:30.884Z,79.50
2017-11-26T22:59:58.510Z,78.59
2017-11-26T23:02:26.061Z,79.25
2017-11-26T23:04:53.587Z,79.21
2017-11-26T23:07:21.157Z,79.90
2017-11-26T23:09:48.680Z,80.28
2017-11-26T23:12:16.307Z,80.46
2017-11-26T23:14:43.868Z,80.35
2017-11-26T23:17:12.161Z,80.17
2017-11-26T23:19:39.698Z,80.16
2017-11-26T23:22:07.245Z,80.57
2017-11-26T23:24:34.783Z,80.54
2017-11-26T23:27:02.617Z,80.79
2017-11-26T23:29:30.169Z,80.44
2017-11-26T23:31:57.749Z,80.63
2017-11-26T23:34:25.315Z,81.02
2017-11-26T23:36:52.874Z,81.22
2017-11-26T23:39:20.551Z,80.26
2017-11-26T23:41:48.128Z,80.92
2017-11-26T23:44:15.713Z,81.64
2017-11-26T23:46:43.281Z,81.17
2017-11-26T23:49:10.922Z,80.80
2017-11-26T23:51:39.214Z,81.13
2017-11-26T23:54:06.920Z,81.17
2017-11-26T23:56:34.496Z,80.64
2017-11-26T23:59:02.112Z,80.63
